Gaithersburg, MD (20877)

1:59 AM EDT on March 30, 2015 (GMT -0400)
Muddy Branch Park | | Change Station
CLOSE
Current Station
Personal Weather Station
Location: Gaithersburg, MD
Elevation: 394 ft
Nearby Weather Stations

Elev 394 ft 39.12 °N, 77.21 °W | Updated 10 seconds ago

Overcast
Overcast
37.7 °F
Feels Like 38 °F
N
1.0
Wind Variable Wind from SSE
Gusts 4.0 mph

Today
High -- | Low -- °F
--% Chance of Precip.
Yesterday
High -- | Low -- °F
Precip. -- in
6:56 AM 7:30 PM
Waxing Gibbous, 77% visible
Pressure 30.08 in
Visibility 10.0 miles
Clouds Few 1900 ft
Mostly Cloudy 8000 ft
Overcast 10000 ft
Windchill 38 °F
Dew Point 30 °F
Humidity 73%
Rainfall 0.00 in
Snow Depth Not available.
UV 0 out of 12
Pollen 8.10 out of 12
Air Quality Not available.
Flu Activity Not available.
METAR KGAI 300555Z AUTO 13006KT 10SM FEW019 BKN080 OVC100 02/M03 A3008 RMK AO1 10050 20020 57027

More Conditions Fewer Conditions

Pressure 30.08 in
Visibility 10.0 miles
Clouds Few 1900 ft
Mostly Cloudy 8000 ft
Overcast 10000 ft
Windchill 38 °F
Dew Point 30 °F
Humidity 73%
Rainfall 0.00 in
Snow Depth Not available.
UV 0 out of 12
Pollen 8.10 out of 12
Air Quality Not available.
Flu Activity Not available.
METAR KGAI 300555Z AUTO 13006KT 10SM FEW019 BKN080 OVC100 02/M03 A3008 RMK AO1 10050 20020 57027

More Conditions Fewer Conditions

Nowcast | as of 1:31 am EDT on March 30, 2015

line of gusty sleet and rain continues to move east... At 130 am EDT...an area of sleet was along a line extending from North Chevy Chase to 6 miles east of Port Royal...and moving east at 35 mph. Winds of 30 mph are possible with this line of rain and sleet. Locations impacted include... central and eastern sections of the Washington DC Metro area and southern Maryland. Ground temperatures are well above zero and no accumulation is expected. Roadways will become wet under the heaviest precipitation. Lat...Lon 3822 7659 3823 7678 3833 7699 3814 7708 3837 7710 3840 7704 3833 7697 3834 7697 3844 7702 3841 7710 3869 7710 3870 7702 3875 7701 3888 7703 3890 7706 3872 7704 3870 7710 3908 7710 3916 7653 3814 7653 time...Mot...loc 0530z 268deg 30kt 3901 7708 3819 7708

×

10-Day Weather Forecast

Almanac

Astronomy

Mar. 30, 2015 Rise Set
Actual Time
Civil Twilight
Nautical Twilight
Astronomical Twilight
Moon
Length of Visible Light
Length of Day
Tomorrow will be .
, % of the Moon is Illuminated

Today's Extremes

State Highs State Lows

Community

WunderPhotos

Upload Photos

1,809,437 photos uploaded!

WunderBlogs® & News

Nearby

Air Quality

  Air Quality AQ Index Pollutant
Not available.

Snow Depth

Station Depth Elevation

Earthquake Activity

City Distance Mag. Time & Date
Minimum magnitude displayed is 2.5.

Coastal Water Temperatures

Place Temperature

Stations

Nearby Weather Stations

Station Location Temp. Windchill Dew Point Humidity Wind Precip. Elev Updated Type